Time;durP1;ratioP1;P1;durP2;ratioP2;P2;SDS_P1;SDS_P2;PMS_P1;PMS_P2;Temp;Humidity;BMP_temperature;BMP_pressure;BME280_temperature;BME280_humidity;BME280_pressure;Samples;Min_cycle;Max_cycle;Signal;HPM_P1;HPM_P2
2022/05/26 00:01:45;;;;;;;2.15;0.50;;;;;;;;;;5280870;28;20278;-70
2022/05/26 00:04:17;;;;;;;4.38;0.50;;;;;;;;;;5280055;28;20316;-69
2022/05/26 00:06:49;;;;;;;4.22;0.60;;;;;;;;;;5280550;28;20765;-69
2022/05/26 00:09:20;;;;;;;6.57;0.60;;;;;;;;;;5280204;28;20467;-67
2022/05/26 00:11:51;;;;;;;4.90;1.20;;;;;;;;;;5280444;28;20032;-67
2022/05/26 00:14:22;;;;;;;2.78;0.50;;;;;;;;;;5280598;28;20075;-68
2022/05/26 00:16:53;;;;;;;3.63;0.60;;;;;;;;;;5280152;28;20036;-68
2022/05/26 00:19:25;;;;;;;5.20;1.15;;;;;;;;;;5280375;28;20267;-68
2022/05/26 00:21:56;;;;;;;2.97;0.80;;;;;;;;;;5280825;28;20273;-67
2022/05/26 00:24:27;;;;;;;10.70;1.13;;;;;;;;;;5279379;28;20278;-68
2022/05/26 00:26:58;;;;;;;2.80;0.82;;;;;;;;;;5281062;28;20031;-68
2022/05/26 00:29:29;;;;;;;4.55;0.70;;;;;;;;;;5280272;28;20032;-68
2022/05/26 00:32:00;;;;;;;3.00;0.70;;;;;;;;;;5279804;28;20103;-68
2022/05/26 00:34:32;;;;;;;3.58;0.80;;;;;;;;;;5280225;28;20271;-67
2022/05/26 00:37:07;;;;;;;3.95;0.77;;;;;;;;;;5284342;28;20031;-67
2022/05/26 00:39:38;;;;;;;4.15;1.00;;;;;;;;;;5283608;28;20699;-67
2022/05/26 00:42:10;;;;;;;4.53;1.05;;;;;;;;;;5284090;28;20115;-68
2022/05/26 00:44:42;;;;;;;4.88;0.77;;;;;;;;;;5283389;28;20012;-68
2022/05/26 00:47:18;;;;;;;5.15;1.30;;;;;;;;;;5284189;28;20032;-67
2022/05/26 00:50:01;;;;;;;4.32;1.25;;;;;;;;;;5284238;28;20029;-67
2022/05/26 00:52:50;;;;;;;7.85;1.25;;;;;;;;;;5282992;28;20024;-68
2022/05/26 00:55:26;;;;;;;8.05;1.17;;;;;;;;;;5283647;28;20020;-67
2022/05/26 00:58:03;;;;;;;6.60;1.15;;;;;;;;;;5284225;28;20503;-67
2022/05/26 01:00:35;;;;;;;8.65;1.70;;;;;;;;;;5283109;28;20008;-68
2022/05/26 01:03:11;;;;;;;5.03;1.00;;;;;;;;;;5284020;28;20532;-68
2022/05/26 01:05:46;;;;;;;8.00;1.58;;;;;;;;;;5283654;28;20031;-68
2022/05/26 01:08:23;;;;;;;6.75;1.35;;;;;;;;;;5283617;28;20056;-68
2022/05/26 01:10:54;;;;;;;7.05;1.42;;;;;;;;;;5284134;28;20020;-68
2022/05/26 01:13:26;;;;;;;8.27;1.67;;;;;;;;;;5282724;28;20025;-68
2022/05/26 01:16:23;;;;;;;8.70;1.95;;;;;;;;;;5283715;28;20307;-68
2022/05/26 01:19:00;;;;;;;7.40;1.58;;;;;;;;;;5284029;28;20033;-68
2022/05/26 01:21:41;;;;;;;7.30;1.58;;;;;;;;;;5282752;28;20460;-68
2022/05/26 01:24:26;;;;;;;7.18;1.38;;;;;;;;;;5283167;28;20395;-68
2022/05/26 01:27:16;;;;;;;9.13;1.92;;;;;;;;;;5282988;28;20070;-68
2022/05/26 01:29:57;;;;;;;9.23;1.45;;;;;;;;;;5283362;28;20407;-68
2022/05/26 01:32:38;;;;;;;4.90;1.30;;;;;;;;;;5282951;28;20020;-68
2022/05/26 01:35:25;;;;;;;10.02;2.28;;;;;;;;;;5282496;28;20024;-68
2022/05/26 01:38:08;;;;;;;6.65;1.83;;;;;;;;;;5283495;28;20032;-68
2022/05/26 01:40:45;;;;;;;9.48;2.00;;;;;;;;;;5283088;28;20043;-68
2022/05/26 01:43:25;;;;;;;9.00;2.40;;;;;;;;;;5282248;28;20028;-68
2022/05/26 01:46:04;;;;;;;7.60;1.85;;;;;;;;;;5283392;28;20472;-68
2022/05/26 01:48:54;;;;;;;12.20;3.05;;;;;;;;;;5281706;28;20021;-68
2022/05/26 01:51:31;;;;;;;7.63;2.70;;;;;;;;;;5282505;28;20112;-68
2022/05/26 01:54:14;;;;;;;6.18;2.70;;;;;;;;;;5283081;28;20020;-68
2022/05/26 01:56:50;;;;;;;8.73;2.67;;;;;;;;;;5281972;28;20025;-68
2022/05/26 01:59:28;;;;;;;8.05;2.88;;;;;;;;;;5282461;28;20036;-68
2022/05/26 02:02:02;;;;;;;8.82;2.95;;;;;;;;;;5282949;28;20025;-68
2022/05/26 02:04:36;;;;;;;14.27;4.22;;;;;;;;;;5282665;28;20382;-68
2022/05/26 02:07:10;;;;;;;8.90;3.88;;;;;;;;;;5282660;28;20023;-68
2022/05/26 02:09:42;;;;;;;11.13;4.10;;;;;;;;;;5281787;28;20024;-69
2022/05/26 02:12:17;;;;;;;15.70;4.10;;;;;;;;;;5282392;28;20020;-68
2022/05/26 02:14:52;;;;;;;10.93;4.88;;;;;;;;;;5282604;28;20016;-68
2022/05/26 02:17:31;;;;;;;12.57;4.35;;;;;;;;;;5281105;28;20064;-68
2022/05/26 02:20:14;;;;;;;11.95;5.00;;;;;;;;;;5282550;28;20386;-68
2022/05/26 02:22:49;;;;;;;13.63;3.90;;;;;;;;;;5281920;28;20020;-67
2022/05/26 02:25:22;;;;;;;14.55;4.57;;;;;;;;;;5281316;28;20487;-68
2022/05/26 02:27:55;;;;;;;14.80;4.57;;;;;;;;;;5282608;28;20142;-67
2022/05/26 02:30:28;;;;;;;11.30;3.90;;;;;;;;;;5281017;28;20035;-67
2022/05/26 02:32:59;;;;;;;12.95;4.63;;;;;;;;;;5282380;28;20018;-67
2022/05/26 02:35:32;;;;;;;12.70;4.88;;;;;;;;;;5281571;28;20043;-68
2022/05/26 02:38:06;;;;;;;11.65;4.15;;;;;;;;;;5281095;28;20052;-67
2022/05/26 02:40:37;;;;;;;11.65;5.10;;;;;;;;;;5282013;28;20025;-68
2022/05/26 02:43:18;;;;;;;12.68;4.68;;;;;;;;;;5281957;28;20443;-68
2022/05/26 02:46:08;;;;;;;11.18;4.90;;;;;;;;;;5281260;28;20495;-68
2022/05/26 02:48:54;;;;;;;15.70;5.60;;;;;;;;;;5281912;28;20077;-68
2022/05/26 02:51:26;;;;;;;12.90;4.53;;;;;;;;;;5280871;28;20475;-68
2022/05/26 02:54:03;;;;;;;13.70;4.50;;;;;;;;;;5281919;28;20077;-68
2022/05/26 02:56:41;;;;;;;12.30;4.85;;;;;;;;;;5281652;28;20059;-67
2022/05/26 02:59:16;;;;;;;14.85;5.07;;;;;;;;;;5280166;28;20089;-67
2022/05/26 03:01:52;;;;;;;12.40;4.60;;;;;;;;;;5281657;28;20055;-68
2022/05/26 03:04:30;;;;;;;12.88;5.70;;;;;;;;;;5281049;28;20016;-67
2022/05/26 03:07:04;;;;;;;12.32;5.32;;;;;;;;;;5280869;28;20017;-68
2022/05/26 03:09:37;;;;;;;15.73;5.10;;;;;;;;;;5281408;28;20471;-68
2022/05/26 03:12:22;;;;;;;14.68;5.47;;;;;;;;;;5281477;28;20016;-68
2022/05/26 03:14:53;;;;;;;16.05;6.72;;;;;;;;;;5281351;28;20048;-67
2022/05/26 03:17:25;;;;;;;13.32;5.85;;;;;;;;;;5280847;28;20068;-68
2022/05/26 03:19:56;;;;;;;15.68;6.75;;;;;;;;;;5280838;28;20485;-68
2022/05/26 03:22:27;;;;;;;16.63;5.78;;;;;;;;;;5280895;28;20021;-68
2022/05/26 03:24:58;;;;;;;18.63;6.60;;;;;;;;;;5281362;28;20101;-68
2022/05/26 03:27:30;;;;;;;19.33;5.70;;;;;;;;;;5279955;28;20289;-68
2022/05/26 03:30:01;;;;;;;16.00;5.80;;;;;;;;;;5281336;28;20396;-68
2022/05/26 03:32:32;;;;;;;18.98;5.38;;;;;;;;;;5281034;28;20031;-68
2022/05/26 03:40:56;;;;;;;18.15;5.50;;;;;;;;;;5280271;28;20021;-68
2022/05/26 03:43:31;;;;;;;20.35;5.45;;;;;;;;;;5280703;28;20029;-68
2022/05/26 03:46:03;;;;;;;13.38;5.20;;;;;;;;;;5280965;28;20463;-68
2022/05/26 03:48:35;;;;;;;20.33;5.97;;;;;;;;;;5279990;28;20020;-68
2022/05/26 03:51:07;;;;;;;18.38;5.30;;;;;;;;;;5281128;28;20451;-68
2022/05/26 03:53:38;;;;;;;18.13;5.55;;;;;;;;;;5281139;28;20016;-68
2022/05/26 03:56:09;;;;;;;18.85;6.00;;;;;;;;;;5280017;28;20052;-68
2022/05/26 03:58:40;;;;;;;16.27;5.60;;;;;;;;;;5280841;28;20031;-68
2022/05/26 04:01:11;;;;;;;25.10;6.40;;;;;;;;;;5280996;28;20267;-68
2022/05/26 04:03:42;;;;;;;21.90;5.60;;;;;;;;;;5280173;28;20787;-68
2022/05/26 04:06:15;;;;;;;17.65;5.18;;;;;;;;;;5280853;28;20336;-67
2022/05/26 04:08:46;;;;;;;21.35;5.55;;;;;;;;;;5279933;28;20286;-68
2022/05/26 04:11:17;;;;;;;19.10;5.20;;;;;;;;;;5283649;28;20060;-67
2022/05/26 04:13:48;;;;;;;19.25;4.60;;;;;;;;;;5284986;28;20263;-68
2022/05/26 04:16:20;;;;;;;19.60;5.18;;;;;;;;;;5283843;28;20281;-69
2022/05/26 04:18:51;;;;;;;16.45;4.13;;;;;;;;;;5285089;28;20032;-67
2022/05/26 04:21:22;;;;;;;20.85;5.93;;;;;;;;;;5284316;28;20032;-67
2022/05/26 04:23:54;;;;;;;19.75;5.35;;;;;;;;;;5283939;28;20048;-69
2022/05/26 04:26:25;;;;;;;18.47;5.30;;;;;;;;;;5284600;28;20044;-69
2022/05/26 04:29:13;;;;;;;13.82;4.10;;;;;;;;;;5284821;28;20262;-67
2022/05/26 04:31:45;;;;;;;22.55;4.40;;;;;;;;;;5283639;28;20017;-68
2022/05/26 04:34:16;;;;;;;22.92;4.65;;;;;;;;;;5284638;28;20074;-67
2022/05/26 04:36:47;;;;;;;17.50;3.90;;;;;;;;;;5283722;28;20028;-68
2022/05/26 04:39:19;;;;;;;21.75;5.70;;;;;;;;;;5284140;28;20017;-68
2022/05/26 04:41:50;;;;;;;18.70;4.68;;;;;;;;;;5284562;28;20024;-68
2022/05/26 04:44:21;;;;;;;21.75;4.70;;;;;;;;;;5283042;28;20016;-68
2022/05/26 04:46:52;;;;;;;17.07;4.23;;;;;;;;;;5284423;28;20047;-68
2022/05/26 04:49:23;;;;;;;17.15;4.38;;;;;;;;;;5284092;28;20750;-68
2022/05/26 04:51:55;;;;;;;17.60;5.37;;;;;;;;;;5283760;28;20017;-69
2022/05/26 04:54:26;;;;;;;19.50;5.18;;;;;;;;;;5283702;28;20316;-67
2022/05/26 04:56:58;;;;;;;19.20;5.63;;;;;;;;;;5284226;28;20036;-69
2022/05/26 04:59:30;;;;;;;16.45;3.83;;;;;;;;;;5283028;28;20365;-67
2022/05/26 05:02:01;;;;;;;21.55;4.25;;;;;;;;;;5284091;28;20031;-69
2022/05/26 05:04:32;;;;;;;22.80;4.55;;;;;;;;;;5283662;28;20016;-67
2022/05/26 05:07:04;;;;;;;23.02;4.18;;;;;;;;;;5283033;28;20494;-68
2022/05/26 05:09:36;;;;;;;21.73;4.90;;;;;;;;;;5283591;28;20093;-68
2022/05/26 05:12:08;;;;;;;18.40;4.00;;;;;;;;;;5282802;28;20393;-68
2022/05/26 05:14:41;;;;;;;19.75;4.20;;;;;;;;;;5283503;28;20465;-68
2022/05/26 05:17:12;;;;;;;19.25;3.80;;;;;;;;;;5283621;28;20483;-67
2022/05/26 05:19:44;;;;;;;21.80;4.65;;;;;;;;;;5282702;28;20016;-67
2022/05/26 05:22:23;;;;;;;20.90;5.80;;;;;;;;;;5282659;28;20024;-68
2022/05/26 05:24:57;;;;;;;22.33;5.05;;;;;;;;;;5284102;28;20052;-67
2022/05/26 05:27:35;;;;;;;19.67;4.68;;;;;;;;;;5282525;28;20040;-68
2022/05/26 05:30:14;;;;;;;19.75;4.60;;;;;;;;;;5283317;28;20053;-68
2022/05/26 05:32:50;;;;;;;19.85;4.60;;;;;;;;;;5283673;28;20518;-70
2022/05/26 05:35:24;;;;;;;26.88;4.70;;;;;;;;;;5282372;28;20123;-68
2022/05/26 05:37:56;;;;;;;19.08;5.03;;;;;;;;;;5283656;28;20032;-68
2022/05/26 05:40:27;;;;;;;21.63;4.63;;;;;;;;;;5282209;28;20480;-68
2022/05/26 05:42:59;;;;;;;20.00;5.75;;;;;;;;;;5283625;28;20024;-68
2022/05/26 05:45:30;;;;;;;19.30;5.32;;;;;;;;;;5282931;28;20013;-69
2022/05/26 05:48:01;;;;;;;16.95;4.90;;;;;;;;;;5282562;28;20095;-68
2022/05/26 05:50:32;;;;;;;20.27;5.30;;;;;;;;;;5282912;28;20259;-68
2022/05/26 05:53:03;;;;;;;16.90;5.47;;;;;;;;;;5283049;28;20270;-69
2022/05/26 05:55:34;;;;;;;21.38;4.70;;;;;;;;;;5282251;28;20273;-69
2022/05/26 05:58:08;;;;;;;18.65;4.03;;;;;;;;;;5282972;28;20028;-69
2022/05/26 06:00:40;;;;;;;19.83;4.35;;;;;;;;;;5282744;28;20074;-69
2022/05/26 06:03:11;;;;;;;19.50;4.28;;;;;;;;;;5282083;28;20020;-70
2022/05/26 06:05:42;;;;;;;17.53;4.60;;;;;;;;;;5282564;28;20028;-69
2022/05/26 06:08:13;;;;;;;21.23;4.90;;;;;;;;;;5282133;28;20301;-70
2022/05/26 06:10:45;;;;;;;15.82;4.32;;;;;;;;;;5282692;28;20278;-70
2022/05/26 06:13:16;;;;;;;15.95;4.45;;;;;;;;;;5282706;28;20353;-68
2022/05/26 06:15:47;;;;;;;20.05;4.82;;;;;;;;;;5281851;28;20328;-69
2022/05/26 06:18:19;;;;;;;19.83;4.85;;;;;;;;;;5282252;28;20475;-68
2022/05/26 06:20:50;;;;;;;18.33;5.13;;;;;;;;;;5282718;28;20266;-69
2022/05/26 06:23:21;;;;;;;17.50;5.13;;;;;;;;;;5281263;28;20457;-69
2022/05/26 06:25:52;;;;;;;21.60;6.47;;;;;;;;;;5282537;28;20263;-68
2022/05/26 06:31:24;;;;;;;16.58;5.85;;;;;;;;;;5261612;28;20285;-68
2022/05/26 06:39:35;;;;;;;18.35;6.55;;;;;;;;;;5281760;28;20471;-70
2022/05/26 06:42:07;;;;;;;17.05;6.78;;;;;;;;;;5282021;28;20032;-69
2022/05/26 06:44:39;;;;;;;18.23;5.65;;;;;;;;;;5281142;28;20017;-67
2022/05/26 06:47:12;;;;;;;16.48;6.00;;;;;;;;;;5281680;28;20020;-68
2022/05/26 06:49:44;;;;;;;16.40;6.78;;;;;;;;;;5281560;28;20024;-68
2022/05/26 06:52:16;;;;;;;24.27;6.97;;;;;;;;;;5281294;28;20016;-68
2022/05/26 06:54:47;;;;;;;17.98;6.20;;;;;;;;;;5281571;28;20028;-68
2022/05/26 06:57:18;;;;;;;17.58;6.70;;;;;;;;;;5277798;28;20070;-68
2022/05/26 06:59:50;;;;;;;23.27;7.68;;;;;;;;;;5279636;28;20024;-67
2022/05/26 07:02:21;;;;;;;19.70;6.53;;;;;;;;;;5280901;28;20129;-68
2022/05/26 07:04:52;;;;;;;15.38;6.80;;;;;;;;;;5281043;28;20391;-68
2022/05/26 07:07:25;;;;;;;15.98;6.18;;;;;;;;;;5280956;28;20263;-68
2022/05/26 07:09:56;;;;;;;16.35;6.07;;;;;;;;;;5281753;28;20087;-68
2022/05/26 07:12:27;;;;;;;15.55;5.93;;;;;;;;;;5279709;28;20099;-68
2022/05/26 07:14:59;;;;;;;15.73;4.97;;;;;;;;;;5281756;28;20044;-68
2022/05/26 07:17:31;;;;;;;13.13;5.18;;;;;;;;;;5278408;28;20098;-68
2022/05/26 07:20:02;;;;;;;13.02;6.00;;;;;;;;;;5278041;28;20022;-68
2022/05/26 07:22:34;;;;;;;11.43;5.20;;;;;;;;;;5280230;28;20071;-68
2022/05/26 07:25:05;;;;;;;14.98;5.20;;;;;;;;;;5281216;28;20061;-69
2022/05/26 07:27:36;;;;;;;12.30;4.60;;;;;;;;;;5280298;28;20044;-69
2022/05/26 07:30:10;;;;;;;12.07;5.25;;;;;;;;;;5281143;28;20024;-69
2022/05/26 07:32:41;;;;;;;14.93;4.88;;;;;;;;;;5279950;28;20025;-70
2022/05/26 07:35:12;;;;;;;23.67;5.72;;;;;;;;;;5280491;28;20480;-68
2022/05/26 07:43:23;;;;;;;12.43;4.32;;;;;;;;;;5281083;28;20029;-69
2022/05/26 07:45:55;;;;;;;13.65;4.18;;;;;;;;;;5286092;28;20017;-69
2022/05/26 07:48:26;;;;;;;12.38;4.13;;;;;;;;;;5287138;28;20024;-69
2022/05/26 07:50:57;;;;;;;13.18;4.78;;;;;;;;;;5288053;28;20027;-68
2022/05/26 07:53:28;;;;;;;15.43;5.30;;;;;;;;;;5287749;28;20368;-68
2022/05/26 07:56:02;;;;;;;12.43;3.50;;;;;;;;;;5287366;28;20278;-68
2022/05/26 07:58:34;;;;;;;10.52;3.22;;;;;;;;;;5288003;28;20768;-69
2022/05/26 08:01:07;;;;;;;11.93;3.97;;;;;;;;;;5286968;28;20129;-69
2022/05/26 08:03:38;;;;;;;14.88;5.05;;;;;;;;;;5287787;28;20024;-69
2022/05/26 08:06:09;;;;;;;15.63;5.32;;;;;;;;;;5287688;28;20302;-71
2022/05/26 08:08:40;;;;;;;10.95;3.75;;;;;;;;;;5286900;28;20023;-69
2022/05/26 08:11:12;;;;;;;13.95;4.07;;;;;;;;;;5287903;28;20020;-68
2022/05/26 08:13:43;;;;;;;9.27;3.72;;;;;;;;;;5287667;28;20666;-68
2022/05/26 08:16:14;;;;;;;12.73;4.32;;;;;;;;;;5286937;28;20282;-69
2022/05/26 08:18:45;;;;;;;11.23;3.72;;;;;;;;;;5287466;28;20488;-69
2022/05/26 08:21:18;;;;;;;14.18;4.53;;;;;;;;;;5287510;28;20111;-68
2022/05/26 08:23:49;;;;;;;16.52;4.90;;;;;;;;;;5287052;28;20050;-68
2022/05/26 08:26:20;;;;;;;6.22;3.10;;;;;;;;;;5287264;28;20119;-68
2022/05/26 08:28:51;;;;;;;11.32;3.88;;;;;;;;;;5287488;28;20492;-67
2022/05/26 08:31:23;;;;;;;10.43;3.27;;;;;;;;;;5286767;28;20024;-68
2022/05/26 08:33:55;;;;;;;11.88;3.08;;;;;;;;;;5287580;28;20598;-68
2022/05/26 08:36:28;;;;;;;8.70;2.40;;;;;;;;;;5286558;28;20016;-69
2022/05/26 08:38:59;;;;;;;9.88;2.03;;;;;;;;;;5287747;28;20322;-69
2022/05/26 08:41:41;;;;;;;5.40;1.83;;;;;;;;;;5287108;28;20473;-69
2022/05/26 08:44:24;;;;;;;8.68;2.55;;;;;;;;;;5286770;28;20278;-68
2022/05/26 08:47:03;;;;;;;6.40;1.85;;;;;;;;;;5287840;28;20056;-68
2022/05/26 08:49:36;;;;;;;8.75;2.25;;;;;;;;;;5287469;28;20024;-71
2022/05/26 08:52:10;;;;;;;10.80;4.60;;;;;;;;;;5286362;28;20048;-70
2022/05/26 08:54:42;;;;;;;13.77;7.55;;;;;;;;;;5287162;28;20020;-71
2022/05/26 08:57:15;;;;;;;11.52;5.85;;;;;;;;;;5284455;28;20111;-71
2022/05/26 08:59:47;;;;;;;10.25;5.15;;;;;;;;;;5283590;28;20021;-71
2022/05/26 09:02:25;;;;;;;13.35;5.00;;;;;;;;;;5283115;28;20023;-69
2022/05/26 09:04:58;;;;;;;10.05;3.08;;;;;;;;;;5283233;28;20111;-69
2022/05/26 09:13:14;;;;;;;11.57;3.83;;;;;;;;;;5283271;28;20436;-70
2022/05/26 09:15:45;;;;;;;8.32;2.55;;;;;;;;;;5283715;28;20020;-70
2022/05/26 09:18:18;;;;;;;8.77;4.23;;;;;;;;;;5282834;28;20077;-70
2022/05/26 09:20:50;;;;;;;9.43;3.58;;;;;;;;;;5283862;28;20028;-70
2022/05/26 09:23:22;;;;;;;5.93;3.08;;;;;;;;;;5282981;28;20388;-70
2022/05/26 09:25:55;;;;;;;6.25;3.55;;;;;;;;;;5282889;28;20024;-69
2022/05/26 09:28:46;;;;;;;9.48;3.97;;;;;;;;;;5282941;28;20169;-71
2022/05/26 09:31:43;;;;;;;11.35;6.80;;;;;;;;;;5283442;28;20364;-71
2022/05/26 09:34:25;;;;;;;9.63;5.85;;;;;;;;;;5282780;28;20016;-69
2022/05/26 09:37:01;;;;;;;10.80;6.75;;;;;;;;;;5283405;28;20082;-69
2022/05/26 09:39:37;;;;;;;11.23;6.97;;;;;;;;;;5282360;28;20430;-71
2022/05/26 09:42:15;;;;;;;12.60;5.70;;;;;;;;;;5283000;28;20119;-71
2022/05/26 09:44:46;;;;;;;7.57;5.32;;;;;;;;;;5283243;28;20463;-70
2022/05/26 09:47:23;;;;;;;10.23;4.35;;;;;;;;;;5281469;28;20066;-70
2022/05/26 09:49:55;;;;;;;10.65;4.25;;;;;;;;;;5282767;28;20012;-70
2022/05/26 09:52:29;;;;;;;8.00;3.47;;;;;;;;;;5281980;28;20036;-70
2022/05/26 09:55:09;;;;;;;7.93;4.15;;;;;;;;;;5282140;28;20103;-70
2022/05/26 09:57:40;;;;;;;9.40;6.00;;;;;;;;;;5282772;28;20052;-70
2022/05/26 10:00:16;;;;;;;9.30;5.30;;;;;;;;;;5282764;28;20040;-71
2022/05/26 10:02:49;;;;;;;8.20;4.43;;;;;;;;;;5282107;28;20274;-71
2022/05/26 10:05:23;;;;;;;7.30;4.10;;;;;;;;;;5282252;28;20478;-71
2022/05/26 10:08:13;;;;;;;7.50;4.18;;;;;;;;;;5281830;28;20021;-70
2022/05/26 10:10:56;;;;;;;6.80;3.58;;;;;;;;;;5282619;28;20035;-71
2022/05/26 10:13:42;;;;;;;7.05;2.97;;;;;;;;;;5282102;28;20021;-71
2022/05/26 10:16:25;;;;;;;7.47;2.50;;;;;;;;;;5281823;28;20020;-71
2022/05/26 10:19:12;;;;;;;6.20;2.28;;;;;;;;;;5282895;28;20078;-70
2022/05/26 10:21:50;;;;;;;6.03;3.10;;;;;;;;;;5281622;28;20827;-70
2022/05/26 10:24:57;;;;;;;6.70;3.42;;;;;;;;;;5282033;28;20518;-72
2022/05/26 10:27:40;;;;;;;8.23;5.15;;;;;;;;;;5258773;28;20151;-70
2022/05/26 10:30:13;;;;;;;7.13;4.03;;;;;;;;;;5279328;28;20028;-71
2022/05/26 10:32:52;;;;;;;7.75;3.65;;;;;;;;;;5282481;28;20032;-73
2022/05/26 10:35:25;;;;;;;6.40;3.50;;;;;;;;;;5282004;28;20426;-71
2022/05/26 10:38:15;;;;;;;8.55;3.72;;;;;;;;;;5281512;28;20029;-71
2022/05/26 10:40:52;;;;;;;5.05;4.32;;;;;;;;;;5280175;28;20059;-72
2022/05/26 10:43:25;;;;;;;9.20;4.03;;;;;;;;;;5279863;28;20016;-70
2022/05/26 10:45:59;;;;;;;8.07;4.53;;;;;;;;;;5281767;28;20055;-70
2022/05/26 10:48:45;;;;;;;6.28;3.80;;;;;;;;;;5281272;28;20099;-70
2022/05/26 10:51:37;;;;;;;6.95;3.35;;;;;;;;;;5279776;28;20488;-70
2022/05/26 10:54:08;;;;;;;6.00;3.30;;;;;;;;;;5281712;28;20032;-70
2022/05/26 10:56:59;;;;;;;9.30;3.35;;;;;;;;;;5280965;28;20025;-70
2022/05/26 10:59:36;;;;;;;4.80;3.38;;;;;;;;;;5281368;28;20016;-70
2022/05/26 11:02:14;;;;;;;6.97;3.03;;;;;;;;;;5281856;28;20479;-70
2022/05/26 11:05:03;;;;;;;5.00;2.42;;;;;;;;;;5280911;28;20484;-70
2022/05/26 11:07:43;;;;;;;5.10;1.92;;;;;;;;;;5281532;28;20371;-70
2022/05/26 11:10:33;;;;;;;6.82;2.42;;;;;;;;;;5281154;28;20027;-71
2022/05/26 11:13:08;;;;;;;6.10;2.38;;;;;;;;;;5280993;28;20462;-69
2022/05/26 11:18:43;;;;;;;8.10;2.97;;;;;;;;;;5278418;28;20033;-70
2022/05/26 11:21:17;;;;;;;5.80;2.75;;;;;;;;;;5278935;28;20020;-70
2022/05/26 11:23:49;;;;;;;6.68;3.58;;;;;;;;;;5280218;28;20111;-70
2022/05/26 11:26:31;;;;;;;5.65;3.35;;;;;;;;;;5279881;28;20044;-70
2022/05/26 11:29:11;;;;;;;7.50;3.42;;;;;;;;;;5281397;28;20056;-70
2022/05/26 11:37:36;;;;;;;8.23;3.28;;;;;;;;;;5260024;28;20041;-70
2022/05/26 11:40:09;;;;;;;4.80;3.50;;;;;;;;;;5259562;28;20090;-70
2022/05/26 11:42:47;;;;;;;6.78;3.25;;;;;;;;;;5260158;28;20086;-70
2022/05/26 11:45:18;;;;;;;7.03;3.65;;;;;;;;;;5259988;28;20044;-70
2022/05/26 11:47:54;;;;;;;7.60;3.83;;;;;;;;;;5260120;28;20048;-71
2022/05/26 11:50:44;;;;;;;8.98;4.50;;;;;;;;;;5260111;28;20089;-69
2022/05/26 11:53:27;;;;;;;5.07;3.50;;;;;;;;;;5259495;28;20025;-69
2022/05/26 11:56:03;;;;;;;11.98;5.13;;;;;;;;;;5260840;28;20021;-70
2022/05/26 11:58:36;;;;;;;9.30;4.28;;;;;;;;;;5260557;28;20115;-70
2022/05/26 12:01:16;;;;;;;10.07;4.20;;;;;;;;;;5258145;28;20055;-70
2022/05/26 12:04:00;;;;;;;7.10;3.72;;;;;;;;;;5260098;28;20468;-69
2022/05/26 12:06:33;;;;;;;7.88;3.35;;;;;;;;;;5260279;28;20028;-71
2022/05/26 12:09:08;;;;;;;7.25;2.15;;;;;;;;;;5259667;28;20017;-71
2022/05/26 12:11:51;;;;;;;6.07;2.30;;;;;;;;;;5260093;28;20032;-70
2022/05/26 12:14:25;;;;;;;8.52;2.33;;;;;;;;;;5258813;28;20024;-71
2022/05/26 12:17:15;;;;;;;5.50;1.58;;;;;;;;;;5260621;28;20021;-70
2022/05/26 12:19:46;;;;;;;5.78;1.10;;;;;;;;;;5260226;28;20368;-70
2022/05/26 12:22:31;;;;;;;6.17;0.90;;;;;;;;;;5259357;28;20033;-71
2022/05/26 12:25:08;;;;;;;4.72;1.05;;;;;;;;;;5260005;28;20433;-69
2022/05/26 12:27:48;;;;;;;5.88;1.10;;;;;;;;;;5259881;28;20024;-69
2022/05/26 12:30:28;;;;;;;6.03;1.08;;;;;;;;;;5258969;28;20021;-70
2022/05/26 12:33:00;;;;;;;5.25;1.70;;;;;;;;;;5263870;28;20025;-70
2022/05/26 12:35:40;;;;;;;6.00;1.50;;;;;;;;;;5263238;28;20348;-70
2022/05/26 12:38:29;;;;;;;6.47;0.77;;;;;;;;;;5263739;28;20028;-70
2022/05/26 12:41:03;;;;;;;7.50;1.42;;;;;;;;;;5263851;28;20060;-70
2022/05/26 12:44:01;;;;;;;4.93;1.40;;;;;;;;;;5262762;28;20025;-70
2022/05/26 12:46:40;;;;;;;5.00;1.10;;;;;;;;;;5263618;28;20087;-70
2022/05/26 12:49:14;;;;;;;6.68;0.93;;;;;;;;;;5262754;28;20467;-70
2022/05/26 12:51:55;;;;;;;6.85;1.15;;;;;;;;;;5263458;28;20025;-70
2022/05/26 12:54:26;;;;;;;4.72;0.77;;;;;;;;;;5263089;28;20021;-70
2022/05/26 12:56:59;;;;;;;4.00;0.70;;;;;;;;;;5262924;28;20448;-70
2022/05/26 12:59:30;;;;;;;4.70;0.70;;;;;;;;;;5263094;28;20290;-70
2022/05/26 13:02:02;;;;;;;5.25;1.00;;;;;;;;;;5263406;28;20017;-70
2022/05/26 13:04:35;;;;;;;4.93;1.02;;;;;;;;;;5262428;28;20032;-69
2022/05/26 13:07:06;;;;;;;3.67;0.70;;;;;;;;;;5263539;28;20020;-70
2022/05/26 13:09:49;;;;;;;5.07;0.88;;;;;;;;;;5263245;28;20113;-70
2022/05/26 13:12:23;;;;;;;6.35;0.65;;;;;;;;;;5262159;28;20029;-69
2022/05/26 13:14:58;;;;;;;4.78;0.70;;;;;;;;;;5263261;28;20024;-69
2022/05/26 13:17:29;;;;;;;5.30;1.10;;;;;;;;;;5261744;28;20068;-69
2022/05/26 13:20:02;;;;;;;5.57;1.10;;;;;;;;;;5263243;28;20180;-69
2022/05/26 13:22:35;;;;;;;3.50;0.85;;;;;;;;;;5262801;28;20429;-69
2022/05/26 13:25:09;;;;;;;5.07;0.90;;;;;;;;;;5261852;28;20056;-69
2022/05/26 13:27:45;;;;;;;5.22;0.80;;;;;;;;;;5262630;28;20029;-69
2022/05/26 13:33:11;;;;;;;4.20;0.50;;;;;;;;;;5262337;28;20028;-69
2022/05/26 13:35:46;;;;;;;7.40;0.82;;;;;;;;;;5262591;28;20116;-69
2022/05/26 13:38:40;;;;;;;3.58;0.68;;;;;;;;;;5262320;28;20033;-69
2022/05/26 13:41:15;;;;;;;4.57;0.70;;;;;;;;;;5255625;28;20032;-69
2022/05/26 13:43:47;;;;;;;5.00;0.98;;;;;;;;;;5261534;28;20059;-69
2022/05/26 13:46:25;;;;;;;3.33;0.63;;;;;;;;;;5261336;28;20036;-69
2022/05/26 13:49:01;;;;;;;7.60;0.93;;;;;;;;;;5262671;28;20023;-68
2022/05/26 13:51:38;;;;;;;4.22;0.70;;;;;;;;;;5261989;28;20087;-69
2022/05/26 13:54:18;;;;;;;5.82;0.60;;;;;;;;;;5261559;28;20051;-69
2022/05/26 13:56:49;;;;;;;3.85;0.80;;;;;;;;;;5262673;28;20041;-69
2022/05/26 13:59:21;;;;;;;4.78;0.60;;;;;;;;;;5261945;28;20043;-69
2022/05/26 14:02:04;;;;;;;4.25;0.60;;;;;;;;;;5261755;28;20100;-69
2022/05/26 14:04:39;;;;;;;5.35;0.55;;;;;;;;;;5261831;28;20091;-69
2022/05/26 14:07:29;;;;;;;3.20;0.60;;;;;;;;;;5261198;28;20013;-69
2022/05/26 14:10:06;;;;;;;5.07;0.65;;;;;;;;;;5261913;28;20025;-70
2022/05/26 14:12:38;;;;;;;4.68;0.50;;;;;;;;;;5261970;28;20021;-69
2022/05/26 14:15:09;;;;;;;3.10;0.60;;;;;;;;;;5261136;28;20101;-69
2022/05/26 14:17:42;;;;;;;4.57;0.50;;;;;;;;;;5261873;28;20040;-69
2022/05/26 14:20:23;;;;;;;3.35;0.50;;;;;;;;;;5261891;28;20375;-70
2022/05/26 14:22:55;;;;;;;4.22;0.57;;;;;;;;;;5260962;28;20074;-69
2022/05/26 14:25:26;;;;;;;6.22;0.70;;;;;;;;;;5260117;28;20488;-69
2022/05/26 14:28:01;;;;;;;5.90;0.60;;;;;;;;;;5281179;28;20028;-69
2022/05/26 14:30:35;;;;;;;6.68;0.70;;;;;;;;;;5282212;28;20263;-69
2022/05/26 14:33:10;;;;;;;3.92;0.60;;;;;;;;;;5281019;28;20024;-69
2022/05/26 14:35:41;;;;;;;5.30;0.80;;;;;;;;;;5281261;28;20069;-69
2022/05/26 14:38:12;;;;;;;5.35;0.90;;;;;;;;;;5281740;28;20028;-69
2022/05/26 14:40:44;;;;;;;2.90;0.55;;;;;;;;;;5281968;28;20017;-69
2022/05/26 14:43:17;;;;;;;4.88;0.80;;;;;;;;;;5281103;28;20061;-69
2022/05/26 14:45:48;;;;;;;8.93;1.05;;;;;;;;;;5281756;28;20486;-69
2022/05/26 14:48:19;;;;;;;4.53;0.60;;;;;;;;;;5281582;28;20024;-69
2022/05/26 14:50:51;;;;;;;2.63;0.60;;;;;;;;;;5281446;28;20024;-70
2022/05/26 14:55:27;;;;;;;4.23;0.57;;;;;;;;;;5281843;28;20342;-69
2022/05/26 14:56:13;;;;;;;3.83;0.70;;;;;;;;;;5281218;28;20271;-69
2022/05/26 14:58:44;;;;;;;3.43;0.70;;;;;;;;;;5281715;28;20051;-70
2022/05/26 15:01:15;;;;;;;7.57;0.80;;;;;;;;;;5282301;28;20298;-70
2022/05/26 15:03:46;;;;;;;4.20;0.50;;;;;;;;;;5281043;28;20023;-69
2022/05/26 15:06:18;;;;;;;5.90;0.50;;;;;;;;;;5281724;28;20073;-69
2022/05/26 15:08:49;;;;;;;6.15;0.60;;;;;;;;;;5281713;28;20017;-69
2022/05/26 15:11:20;;;;;;;5.15;0.60;;;;;;;;;;5280418;28;20029;-69
2022/05/26 15:13:52;;;;;;;5.18;0.93;;;;;;;;;;5281765;28;20370;-68
2022/05/26 15:16:24;;;;;;;5.07;0.50;;;;;;;;;;5281220;28;20371;-69
2022/05/26 15:18:55;;;;;;;3.50;0.40;;;;;;;;;;5280923;28;20021;-68
2022/05/26 15:21:26;;;;;;;4.97;0.60;;;;;;;;;;5281171;28;20032;-70
2022/05/26 15:23:57;;;;;;;6.57;0.70;;;;;;;;;;5280710;28;20393;-70
2022/05/26 15:26:29;;;;;;;5.80;0.95;;;;;;;;;;5280724;28;20016;-70
2022/05/26 15:29:00;;;;;;;7.20;0.70;;;;;;;;;;5281762;28;20036;-69
2022/05/26 15:31:31;;;;;;;3.03;0.35;;;;;;;;;;5280250;28;20052;-67
2022/05/26 15:34:02;;;;;;;3.47;0.40;;;;;;;;;;5281242;28;20110;-69
2022/05/26 15:36:33;;;;;;;16.92;1.38;;;;;;;;;;5280304;28;20604;-71
2022/05/26 15:39:05;;;;;;;4.05;0.65;;;;;;;;;;5280695;28;20483;-71
2022/05/26 15:41:36;;;;;;;3.50;0.40;;;;;;;;;;5281325;28;20024;-71
2022/05/26 15:44:07;;;;;;;5.07;0.40;;;;;;;;;;5281314;28;20025;-73
2022/05/26 15:46:40;;;;;;;4.25;0.47;;;;;;;;;;5280493;28;20013;-71
2022/05/26 15:49:12;;;;;;;3.75;0.30;;;;;;;;;;5281090;28;20013;-71
2022/05/26 15:51:43;;;;;;;4.05;0.77;;;;;;;;;;5281259;28;20553;-72
2022/05/26 15:54:20;;;;;;;4.18;0.60;;;;;;;;;;5280202;28;20100;-72
2022/05/26 15:56:52;;;;;;;3.72;0.40;;;;;;;;;;5281254;28;20426;-71
2022/05/26 15:59:25;;;;;;;4.43;0.50;;;;;;;;;;5279770;28;20525;-72
2022/05/26 16:01:56;;;;;;;4.63;0.75;;;;;;;;;;5281125;28;20108;-71